sensor_id;sensor_type;location;lat;lon;timestamp;temperature;humidity
15926;DHT22;8062;53.882;10.642;2023-04-03T00:00:24;-1.40;99.90
15926;DHT22;8062;53.882;10.642;2023-04-03T00:01:44;-1.40;99.90
15926;DHT22;8062;53.882;10.642;2023-04-03T00:03:04;-1.40;99.90
15926;DHT22;8062;53.882;10.642;2023-04-03T00:04:23;-1.40;99.90
15926;DHT22;8062;53.882;10.642;2023-04-03T00:05:43;-1.40;99.90
15926;DHT22;8062;53.882;10.642;2023-04-03T00:07:02;-1.40;99.90
15926;DHT22;8062;53.882;10.642;2023-04-03T00:08:22;-1.40;99.90
15926;DHT22;8062;53.882;10.642;2023-04-03T00:09:41;-1.40;99.90
15926;DHT22;8062;53.882;10.642;2023-04-03T00:11:02;-1.40;99.90
15926;DHT22;8062;53.882;10.642;2023-04-03T00:12:22;-1.40;99.90
15926;DHT22;8062;53.882;10.642;2023-04-03T00:13:42;-1.40;99.90
15926;DHT22;8062;53.882;10.642;2023-04-03T00:15:01;-1.40;99.90
15926;DHT22;8062;53.882;10.642;2023-04-03T00:16:21;-1.40;99.90
15926;DHT22;8062;53.882;10.642;2023-04-03T00:17:41;-1.40;99.90
15926;DHT22;8062;53.882;10.642;2023-04-03T00:19:00;-1.40;99.90
15926;DHT22;8062;53.882;10.642;2023-04-03T00:20:20;-1.40;99.90
15926;DHT22;8062;53.882;10.642;2023-04-03T00:21:40;-1.40;99.90
15926;DHT22;8062;53.882;10.642;2023-04-03T00:23:01;-1.40;99.90
15926;DHT22;8062;53.882;10.642;2023-04-03T00:24:21;-1.50;99.90
15926;DHT22;8062;53.882;10.642;2023-04-03T00:25:40;-1.50;99.90
15926;DHT22;8062;53.882;10.642;2023-04-03T00:27:00;-1.50;99.90
15926;DHT22;8062;53.882;10.642;2023-04-03T00:28:20;-1.50;99.90
15926;DHT22;8062;53.882;10.642;2023-04-03T00:29:40;-1.50;99.90
15926;DHT22;8062;53.882;10.642;2023-04-03T00:31:00;-1.50;99.90
15926;DHT22;8062;53.882;10.642;2023-04-03T00:32:19;-1.50;99.90
15926;DHT22;8062;53.882;10.642;2023-04-03T00:33:39;-1.50;99.90
15926;DHT22;8062;53.882;10.642;2023-04-03T00:34:59;-1.50;99.90
15926;DHT22;8062;53.882;10.642;2023-04-03T00:36:19;-1.50;99.90
15926;DHT22;8062;53.882;10.642;2023-04-03T00:37:38;-1.50;99.90
15926;DHT22;8062;53.882;10.642;2023-04-03T00:38:58;-1.50;99.90
15926;DHT22;8062;53.882;10.642;2023-04-03T00:40:18;-1.50;99.90
15926;DHT22;8062;53.882;10.642;2023-04-03T00:41:38;-1.50;99.90
15926;DHT22;8062;53.882;10.642;2023-04-03T00:42:59;-1.60;99.90
15926;DHT22;8062;53.882;10.642;2023-04-03T00:45:23;-1.60;99.90
15926;DHT22;8062;53.882;10.642;2023-04-03T00:46:00;-1.60;99.90
15926;DHT22;8062;53.882;10.642;2023-04-03T00:47:19;-1.60;99.90
15926;DHT22;8062;53.882;10.642;2023-04-03T00:48:41;-1.60;99.90
15926;DHT22;8062;53.882;10.642;2023-04-03T00:50:02;-1.60;99.90
15926;DHT22;8062;53.882;10.642;2023-04-03T00:51:24;-1.60;99.90
15926;DHT22;8062;53.882;10.642;2023-04-03T00:52:44;-1.70;99.90
15926;DHT22;8062;53.882;10.642;2023-04-03T00:54:07;-1.60;99.90
15926;DHT22;8062;53.882;10.642;2023-04-03T00:55:27;-1.60;99.90
15926;DHT22;8062;53.882;10.642;2023-04-03T00:56:48;-1.60;99.90
15926;DHT22;8062;53.882;10.642;2023-04-03T00:58:08;-1.70;99.90
15926;DHT22;8062;53.882;10.642;2023-04-03T00:59:33;-1.70;99.90
15926;DHT22;8062;53.882;10.642;2023-04-03T01:00:55;-1.70;99.90
15926;DHT22;8062;53.882;10.642;2023-04-03T01:02:17;-1.70;99.90
15926;DHT22;8062;53.882;10.642;2023-04-03T01:03:37;-1.70;99.90
15926;DHT22;8062;53.882;10.642;2023-04-03T01:04:58;-1.70;99.90
15926;DHT22;8062;53.882;10.642;2023-04-03T01:06:21;-1.70;99.90
15926;DHT22;8062;53.882;10.642;2023-04-03T01:07:42;-1.70;99.90
15926;DHT22;8062;53.882;10.642;2023-04-03T01:09:03;-1.70;99.90
15926;DHT22;8062;53.882;10.642;2023-04-03T01:10:23;-1.70;99.90
15926;DHT22;8062;53.882;10.642;2023-04-03T01:11:44;-1.70;99.90
15926;DHT22;8062;53.882;10.642;2023-04-03T01:13:19;-1.70;99.90
15926;DHT22;8062;53.882;10.642;2023-04-03T01:14:38;-1.70;99.90
15926;DHT22;8062;53.882;10.642;2023-04-03T01:16:03;-1.70;99.90
15926;DHT22;8062;53.882;10.642;2023-04-03T01:19:12;-1.80;99.90
15926;DHT22;8062;53.882;10.642;2023-04-03T01:22:19;-1.90;99.90
15926;DHT22;8062;53.882;10.642;2023-04-03T01:23:55;-1.90;99.90
15926;DHT22;8062;53.882;10.642;2023-04-03T01:25:17;-1.90;99.90
15926;DHT22;8062;53.882;10.642;2023-04-03T01:26:38;-1.90;99.90
15926;DHT22;8062;53.882;10.642;2023-04-03T01:27:58;-1.90;99.90
15926;DHT22;8062;53.882;10.642;2023-04-03T01:29:18;-2.00;99.90
15926;DHT22;8062;53.882;10.642;2023-04-03T01:30:45;-2.00;99.90
15926;DHT22;8062;53.882;10.642;2023-04-03T01:32:05;-2.00;99.90
15926;DHT22;8062;53.882;10.642;2023-04-03T01:33:25;-2.00;99.90
15926;DHT22;8062;53.882;10.642;2023-04-03T01:34:44;-2.00;99.90
15926;DHT22;8062;53.882;10.642;2023-04-03T01:36:05;-2.00;99.90
15926;DHT22;8062;53.882;10.642;2023-04-03T01:37:26;-2.00;99.90
15926;DHT22;8062;53.882;10.642;2023-04-03T01:38:45;-2.00;99.90
15926;DHT22;8062;53.882;10.642;2023-04-03T01:40:06;-2.10;99.90
15926;DHT22;8062;53.882;10.642;2023-04-03T01:41:27;-2.10;99.90
15926;DHT22;8062;53.882;10.642;2023-04-03T01:42:52;-2.10;99.90
15926;DHT22;8062;53.882;10.642;2023-04-03T01:44:12;-2.10;99.90
15926;DHT22;8062;53.882;10.642;2023-04-03T01:45:31;-2.10;99.90
15926;DHT22;8062;53.882;10.642;2023-04-03T01:46:51;-2.10;99.90
15926;DHT22;8062;53.882;10.642;2023-04-03T01:48:10;-2.10;99.90
15926;DHT22;8062;53.882;10.642;2023-04-03T01:49:30;-2.10;99.90
15926;DHT22;8062;53.882;10.642;2023-04-03T01:50:50;-2.10;99.90
15926;DHT22;8062;53.882;10.642;2023-04-03T01:52:09;-2.20;99.90
15926;DHT22;8062;53.882;10.642;2023-04-03T01:53:30;-2.20;99.90
15926;DHT22;8062;53.882;10.642;2023-04-03T01:54:50;-2.20;99.90
15926;DHT22;8062;53.882;10.642;2023-04-03T01:56:09;-2.20;99.90
15926;DHT22;8062;53.882;10.642;2023-04-03T01:57:29;-2.20;99.90
15926;DHT22;8062;53.882;10.642;2023-04-03T01:58:49;-2.20;99.90
15926;DHT22;8062;53.882;10.642;2023-04-03T02:00:10;-2.20;99.90
15926;DHT22;8062;53.882;10.642;2023-04-03T02:01:32;-2.20;99.90
15926;DHT22;8062;53.882;10.642;2023-04-03T02:02:52;-2.20;99.90
15926;DHT22;8062;53.882;10.642;2023-04-03T02:04:12;-2.20;99.90
15926;DHT22;8062;53.882;10.642;2023-04-03T02:05:32;-2.20;99.90
15926;DHT22;8062;53.882;10.642;2023-04-03T02:06:51;-2.20;99.90
15926;DHT22;8062;53.882;10.642;2023-04-03T02:08:11;-2.20;99.90
15926;DHT22;8062;53.882;10.642;2023-04-03T02:09:31;-2.20;99.90
15926;DHT22;8062;53.882;10.642;2023-04-03T02:10:51;-2.20;99.90
15926;DHT22;8062;53.882;10.642;2023-04-03T02:12:11;-2.20;99.90
15926;DHT22;8062;53.882;10.642;2023-04-03T02:13:30;-2.30;99.90
15926;DHT22;8062;53.882;10.642;2023-04-03T02:14:49;-2.30;99.90
15926;DHT22;8062;53.882;10.642;2023-04-03T02:16:10;-2.30;99.90
15926;DHT22;8062;53.882;10.642;2023-04-03T02:17:30;-2.30;99.90
15926;DHT22;8062;53.882;10.642;2023-04-03T02:18:50;-2.30;99.90
15926;DHT22;8062;53.882;10.642;2023-04-03T02:20:10;-2.30;99.90
15926;DHT22;8062;53.882;10.642;2023-04-03T02:21:30;-2.30;99.90
15926;DHT22;8062;53.882;10.642;2023-04-03T02:22:50;-2.30;99.90
15926;DHT22;8062;53.882;10.642;2023-04-03T02:24:09;-2.30;99.90
15926;DHT22;8062;53.882;10.642;2023-04-03T02:25:30;-2.30;99.90
15926;DHT22;8062;53.882;10.642;2023-04-03T02:26:50;-2.30;99.90
15926;DHT22;8062;53.882;10.642;2023-04-03T02:28:10;-2.30;99.90
15926;DHT22;8062;53.882;10.642;2023-04-03T02:29:30;-2.30;99.90
15926;DHT22;8062;53.882;10.642;2023-04-03T02:30:50;-2.40;99.90
15926;DHT22;8062;53.882;10.642;2023-04-03T02:32:09;-2.30;99.90
15926;DHT22;8062;53.882;10.642;2023-04-03T02:33:30;-2.30;99.90
15926;DHT22;8062;53.882;10.642;2023-04-03T02:34:49;-2.40;99.90
15926;DHT22;8062;53.882;10.642;2023-04-03T02:36:10;-2.30;99.90
15926;DHT22;8062;53.882;10.642;2023-04-03T02:37:31;-2.30;99.90
15926;DHT22;8062;53.882;10.642;2023-04-03T02:38:51;-2.30;99.90
15926;DHT22;8062;53.882;10.642;2023-04-03T02:40:11;-2.30;99.90
15926;DHT22;8062;53.882;10.642;2023-04-03T02:41:31;-2.30;99.90
15926;DHT22;8062;53.882;10.642;2023-04-03T02:43:02;-2.30;99.90
15926;DHT22;8062;53.882;10.642;2023-04-03T02:44:21;-2.30;99.90
15926;DHT22;8062;53.882;10.642;2023-04-03T02:45:42;-2.40;99.90
15926;DHT22;8062;53.882;10.642;2023-04-03T02:47:02;-2.40;99.90
15926;DHT22;8062;53.882;10.642;2023-04-03T02:48:22;-2.50;99.90
15926;DHT22;8062;53.882;10.642;2023-04-03T02:49:41;-2.40;99.90
15926;DHT22;8062;53.882;10.642;2023-04-03T02:51:04;-2.40;99.90
15926;DHT22;8062;53.882;10.642;2023-04-03T02:52:24;-2.40;99.90
15926;DHT22;8062;53.882;10.642;2023-04-03T02:53:45;-2.40;99.90
15926;DHT22;8062;53.882;10.642;2023-04-03T02:55:13;-2.40;99.90
15926;DHT22;8062;53.882;10.642;2023-04-03T02:56:34;-2.40;99.90
15926;DHT22;8062;53.882;10.642;2023-04-03T02:57:54;-2.40;99.90
15926;DHT22;8062;53.882;10.642;2023-04-03T02:59:13;-2.40;99.90
15926;DHT22;8062;53.882;10.642;2023-04-03T03:00:34;-2.40;99.90
15926;DHT22;8062;53.882;10.642;2023-04-03T03:01:53;-2.40;99.90
15926;DHT22;8062;53.882;10.642;2023-04-03T03:03:14;-2.40;99.90
15926;DHT22;8062;53.882;10.642;2023-04-03T03:04:34;-2.50;99.90
15926;DHT22;8062;53.882;10.642;2023-04-03T03:06:05;-2.40;99.90
15926;DHT22;8062;53.882;10.642;2023-04-03T03:07:26;-2.50;99.90
15926;DHT22;8062;53.882;10.642;2023-04-03T03:08:45;-2.50;99.90
15926;DHT22;8062;53.882;10.642;2023-04-03T03:10:05;-2.50;99.90
15926;DHT22;8062;53.882;10.642;2023-04-03T03:11:25;-2.50;99.90
15926;DHT22;8062;53.882;10.642;2023-04-03T03:12:46;-2.50;99.90
15926;DHT22;8062;53.882;10.642;2023-04-03T03:14:05;-2.50;99.90
15926;DHT22;8062;53.882;10.642;2023-04-03T03:15:26;-2.50;99.90
15926;DHT22;8062;53.882;10.642;2023-04-03T03:16:45;-2.50;99.90
15926;DHT22;8062;53.882;10.642;2023-04-03T03:18:05;-2.50;99.90
15926;DHT22;8062;53.882;10.642;2023-04-03T03:19:24;-2.50;99.90
15926;DHT22;8062;53.882;10.642;2023-04-03T03:20:45;-2.50;99.90
15926;DHT22;8062;53.882;10.642;2023-04-03T03:22:04;-2.50;99.90
15926;DHT22;8062;53.882;10.642;2023-04-03T03:23:25;-2.50;99.90
15926;DHT22;8062;53.882;10.642;2023-04-03T03:24:45;-2.50;99.90
15926;DHT22;8062;53.882;10.642;2023-04-03T03:26:07;-2.50;99.90
15926;DHT22;8062;53.882;10.642;2023-04-03T03:27:27;-2.50;99.90
15926;DHT22;8062;53.882;10.642;2023-04-03T03:28:47;-2.50;99.90
15926;DHT22;8062;53.882;10.642;2023-04-03T03:30:07;-2.50;99.90
15926;DHT22;8062;53.882;10.642;2023-04-03T03:31:27;-2.50;99.90
15926;DHT22;8062;53.882;10.642;2023-04-03T03:32:46;-2.50;99.90
15926;DHT22;8062;53.882;10.642;2023-04-03T03:34:06;-2.50;99.90
15926;DHT22;8062;53.882;10.642;2023-04-03T03:35:26;-2.50;99.90
15926;DHT22;8062;53.882;10.642;2023-04-03T03:36:46;-2.50;99.90
15926;DHT22;8062;53.882;10.642;2023-04-03T03:38:05;-2.50;99.90
15926;DHT22;8062;53.882;10.642;2023-04-03T03:39:26;-2.50;99.90
15926;DHT22;8062;53.882;10.642;2023-04-03T03:40:48;-2.50;99.90
15926;DHT22;8062;53.882;10.642;2023-04-03T03:42:08;-2.60;99.90
15926;DHT22;8062;53.882;10.642;2023-04-03T03:43:28;-2.60;99.90
15926;DHT22;8062;53.882;10.642;2023-04-03T03:44:48;-2.60;99.90
15926;DHT22;8062;53.882;10.642;2023-04-03T03:46:07;-2.60;99.90
15926;DHT22;8062;53.882;10.642;2023-04-03T03:47:27;-2.50;99.90
15926;DHT22;8062;53.882;10.642;2023-04-03T03:48:46;-2.60;99.90
15926;DHT22;8062;53.882;10.642;2023-04-03T03:50:06;-2.60;99.90
15926;DHT22;8062;53.882;10.642;2023-04-03T03:51:26;-2.60;99.90
15926;DHT22;8062;53.882;10.642;2023-04-03T03:52:46;-2.70;99.90
15926;DHT22;8062;53.882;10.642;2023-04-03T03:54:05;-2.70;99.90
15926;DHT22;8062;53.882;10.642;2023-04-03T03:55:26;-2.70;99.90
15926;DHT22;8062;53.882;10.642;2023-04-03T03:56:47;-2.70;99.90
15926;DHT22;8062;53.882;10.642;2023-04-03T03:58:07;-2.70;99.90
15926;DHT22;8062;53.882;10.642;2023-04-03T03:59:28;-2.80;99.90
15926;DHT22;8062;53.882;10.642;2023-04-03T04:00:47;-2.80;99.90
15926;DHT22;8062;53.882;10.642;2023-04-03T04:02:07;-2.80;99.90
15926;DHT22;8062;53.882;10.642;2023-04-03T04:03:27;-2.90;99.90
15926;DHT22;8062;53.882;10.642;2023-04-03T04:04:47;-2.90;99.90
15926;DHT22;8062;53.882;10.642;2023-04-03T04:06:08;-2.90;99.90
15926;DHT22;8062;53.882;10.642;2023-04-03T04:07:28;-2.80;99.90
15926;DHT22;8062;53.882;10.642;2023-04-03T04:08:48;-2.90;99.90
15926;DHT22;8062;53.882;10.642;2023-04-03T04:10:09;-2.90;99.90
15926;DHT22;8062;53.882;10.642;2023-04-03T04:11:28;-2.80;99.90
15926;DHT22;8062;53.882;10.642;2023-04-03T04:12:48;-2.80;99.90
15926;DHT22;8062;53.882;10.642;2023-04-03T04:14:11;-2.90;99.90
15926;DHT22;8062;53.882;10.642;2023-04-03T04:15:32;-2.80;99.90
15926;DHT22;8062;53.882;10.642;2023-04-03T04:16:52;-2.90;99.90
15926;DHT22;8062;53.882;10.642;2023-04-03T04:18:16;-2.90;99.90
15926;DHT22;8062;53.882;10.642;2023-04-03T04:19:39;-2.90;99.90
15926;DHT22;8062;53.882;10.642;2023-04-03T04:20:58;-2.90;99.90
15926;DHT22;8062;53.882;10.642;2023-04-03T04:22:18;-2.90;99.90
15926;DHT22;8062;53.882;10.642;2023-04-03T04:23:38;-2.90;99.90
15926;DHT22;8062;53.882;10.642;2023-04-03T04:24:57;-2.90;99.90
15926;DHT22;8062;53.882;10.642;2023-04-03T04:26:17;-2.90;99.90
15926;DHT22;8062;53.882;10.642;2023-04-03T04:27:37;-2.90;99.90
15926;DHT22;8062;53.882;10.642;2023-04-03T04:28:57;-2.90;99.90
15926;DHT22;8062;53.882;10.642;2023-04-03T04:30:17;-2.90;99.90
15926;DHT22;8062;53.882;10.642;2023-04-03T04:31:38;-2.90;99.90
15926;DHT22;8062;53.882;10.642;2023-04-03T04:32:58;-3.00;99.90
15926;DHT22;8062;53.882;10.642;2023-04-03T04:34:19;-2.90;99.90
15926;DHT22;8062;53.882;10.642;2023-04-03T04:35:38;-2.90;99.90
15926;DHT22;8062;53.882;10.642;2023-04-03T04:36:58;-3.00;99.90
15926;DHT22;8062;53.882;10.642;2023-04-03T04:38:19;-3.00;99.90
15926;DHT22;8062;53.882;10.642;2023-04-03T04:39:39;-3.00;99.90
15926;DHT22;8062;53.882;10.642;2023-04-03T04:40:59;-2.90;99.90
15926;DHT22;8062;53.882;10.642;2023-04-03T04:42:18;-2.90;99.90
15926;DHT22;8062;53.882;10.642;2023-04-03T04:43:40;-2.90;99.90
15926;DHT22;8062;53.882;10.642;2023-04-03T04:45:00;-2.90;99.90
15926;DHT22;8062;53.882;10.642;2023-04-03T04:46:20;-2.90;99.90
15926;DHT22;8062;53.882;10.642;2023-04-03T04:47:44;-2.90;99.90
15926;DHT22;8062;53.882;10.642;2023-04-03T04:49:04;-3.00;99.90
15926;DHT22;8062;53.882;10.642;2023-04-03T04:50:24;-2.90;99.90
15926;DHT22;8062;53.882;10.642;2023-04-03T04:51:44;-2.90;99.90
15926;DHT22;8062;53.882;10.642;2023-04-03T04:53:04;-2.90;99.90
15926;DHT22;8062;53.882;10.642;2023-04-03T04:54:24;-2.90;99.90
15926;DHT22;8062;53.882;10.642;2023-04-03T04:55:45;-3.00;99.90
15926;DHT22;8062;53.882;10.642;2023-04-03T04:57:04;-2.90;99.90
15926;DHT22;8062;53.882;10.642;2023-04-03T04:58:24;-2.90;99.90
15926;DHT22;8062;53.882;10.642;2023-04-03T04:59:45;-2.90;99.90
15926;DHT22;8062;53.882;10.642;2023-04-03T05:01:07;-3.00;99.90
15926;DHT22;8062;53.882;10.642;2023-04-03T05:02:31;-2.90;99.90
15926;DHT22;8062;53.882;10.642;2023-04-03T05:03:50;-2.90;99.90
15926;DHT22;8062;53.882;10.642;2023-04-03T05:05:11;-2.90;99.90
15926;DHT22;8062;53.882;10.642;2023-04-03T05:06:31;-2.90;99.90
15926;DHT22;8062;53.882;10.642;2023-04-03T05:07:52;-2.90;99.90
15926;DHT22;8062;53.882;10.642;2023-04-03T05:09:12;-2.90;99.90
15926;DHT22;8062;53.882;10.642;2023-04-03T05:10:34;-3.00;99.90
15926;DHT22;8062;53.882;10.642;2023-04-03T05:11:54;-3.00;99.90
15926;DHT22;8062;53.882;10.642;2023-04-03T05:13:18;-2.90;99.90
15926;DHT22;8062;53.882;10.642;2023-04-03T05:14:37;-2.90;99.90
15926;DHT22;8062;53.882;10.642;2023-04-03T05:16:01;-2.90;99.90
15926;DHT22;8062;53.882;10.642;2023-04-03T05:17:21;-2.90;99.90
15926;DHT22;8062;53.882;10.642;2023-04-03T05:18:44;-2.90;99.90
15926;DHT22;8062;53.882;10.642;2023-04-03T05:20:10;-2.90;99.90
15926;DHT22;8062;53.882;10.642;2023-04-03T05:21:31;-2.90;99.90
15926;DHT22;8062;53.882;10.642;2023-04-03T05:22:53;-2.80;99.90
15926;DHT22;8062;53.882;10.642;2023-04-03T05:24:13;-2.80;99.90
15926;DHT22;8062;53.882;10.642;2023-04-03T05:25:38;-2.80;99.90
15926;DHT22;8062;53.882;10.642;2023-04-03T05:26:59;-2.80;99.90
15926;DHT22;8062;53.882;10.642;2023-04-03T05:28:19;-2.90;99.90
15926;DHT22;8062;53.882;10.642;2023-04-03T05:29:39;-2.90;99.90
15926;DHT22;8062;53.882;10.642;2023-04-03T05:30:59;-2.80;99.90
15926;DHT22;8062;53.882;10.642;2023-04-03T05:32:24;-2.80;99.90
15926;DHT22;8062;53.882;10.642;2023-04-03T05:33:54;-2.70;99.90
15926;DHT22;8062;53.882;10.642;2023-04-03T05:35:14;-2.70;99.90
15926;DHT22;8062;53.882;10.642;2023-04-03T05:36:35;-2.60;99.90
15926;DHT22;8062;53.882;10.642;2023-04-03T05:37:58;-2.60;99.90
15926;DHT22;8062;53.882;10.642;2023-04-03T05:39:18;-2.50;99.90
15926;DHT22;8062;53.882;10.642;2023-04-03T05:40:40;-2.50;99.90
15926;DHT22;8062;53.882;10.642;2023-04-03T05:42:00;-2.40;99.90
15926;DHT22;8062;53.882;10.642;2023-04-03T05:43:20;-2.40;99.90
15926;DHT22;8062;53.882;10.642;2023-04-03T05:44:40;-2.30;99.90
15926;DHT22;8062;53.882;10.642;2023-04-03T05:46:00;-2.30;99.90
15926;DHT22;8062;53.882;10.642;2023-04-03T05:47:22;-2.20;99.90
15926;DHT22;8062;53.882;10.642;2023-04-03T05:48:42;-2.20;99.90
15926;DHT22;8062;53.882;10.642;2023-04-03T05:50:05;-2.10;99.90
15926;DHT22;8062;53.882;10.642;2023-04-03T05:51:29;-2.10;99.90
15926;DHT22;8062;53.882;10.642;2023-04-03T05:52:56;-2.00;99.90
15926;DHT22;8062;53.882;10.642;2023-04-03T05:54:22;-2.00;99.90
15926;DHT22;8062;53.882;10.642;2023-04-03T05:55:43;-1.90;99.90
15926;DHT22;8062;53.882;10.642;2023-04-03T05:57:02;-1.90;99.90
15926;DHT22;8062;53.882;10.642;2023-04-03T05:58:22;-1.90;99.90
15926;DHT22;8062;53.882;10.642;2023-04-03T05:59:45;-1.80;99.90
15926;DHT22;8062;53.882;10.642;2023-04-03T06:01:06;-1.80;99.90
15926;DHT22;8062;53.882;10.642;2023-04-03T06:02:25;-1.70;99.90
15926;DHT22;8062;53.882;10.642;2023-04-03T06:03:45;-1.70;99.90
15926;DHT22;8062;53.882;10.642;2023-04-03T06:05:06;-1.60;99.90
15926;DHT22;8062;53.882;10.642;2023-04-03T06:06:52;-1.50;99.90
15926;DHT22;8062;53.882;10.642;2023-04-03T06:08:11;-1.40;99.90
15926;DHT22;8062;53.882;10.642;2023-04-03T06:09:31;-1.30;99.90
15926;DHT22;8062;53.882;10.642;2023-04-03T06:10:52;-1.20;99.90
15926;DHT22;8062;53.882;10.642;2023-04-03T06:12:11;-1.10;99.90
15926;DHT22;8062;53.882;10.642;2023-04-03T06:13:31;-1.10;99.90
15926;DHT22;8062;53.882;10.642;2023-04-03T06:14:51;-1.00;99.90
15926;DHT22;8062;53.882;10.642;2023-04-03T06:16:15;-0.90;99.90
15926;DHT22;8062;53.882;10.642;2023-04-03T06:17:36;-0.80;99.90
15926;DHT22;8062;53.882;10.642;2023-04-03T06:18:57;-0.80;99.90
15926;DHT22;8062;53.882;10.642;2023-04-03T06:20:17;-0.70;99.90
15926;DHT22;8062;53.882;10.642;2023-04-03T06:21:36;-0.60;99.90
15926;DHT22;8062;53.882;10.642;2023-04-03T06:22:56;-0.50;99.90
15926;DHT22;8062;53.882;10.642;2023-04-03T06:24:16;-0.30;99.90
15926;DHT22;8062;53.882;10.642;2023-04-03T06:25:36;-0.30;99.90
15926;DHT22;8062;53.882;10.642;2023-04-03T06:26:56;-0.20;99.90
15926;DHT22;8062;53.882;10.642;2023-04-03T06:28:16;0.00;99.90
15926;DHT22;8062;53.882;10.642;2023-04-03T06:29:36;0.10;99.90
15926;DHT22;8062;53.882;10.642;2023-04-03T06:30:56;0.30;99.90
15926;DHT22;8062;53.882;10.642;2023-04-03T06:32:16;0.50;99.90
15926;DHT22;8062;53.882;10.642;2023-04-03T06:33:35;0.70;99.90
15926;DHT22;8062;53.882;10.642;2023-04-03T06:34:55;0.90;99.90
15926;DHT22;8062;53.882;10.642;2023-04-03T06:36:15;1.20;99.90
15926;DHT22;8062;53.882;10.642;2023-04-03T06:37:39;1.50;99.90
15926;DHT22;8062;53.882;10.642;2023-04-03T06:38:58;2.00;99.90
15926;DHT22;8062;53.882;10.642;2023-04-03T06:40:22;2.60;99.90
15926;DHT22;8062;53.882;10.642;2023-04-03T06:41:43;3.30;99.90
15926;DHT22;8062;53.882;10.642;2023-04-03T06:43:02;4.10;99.90
15926;DHT22;8062;53.882;10.642;2023-04-03T06:44:21;4.80;99.90
15926;DHT22;8062;53.882;10.642;2023-04-03T06:45:41;5.50;99.90
15926;DHT22;8062;53.882;10.642;2023-04-03T06:47:00;6.20;99.90
15926;DHT22;8062;53.882;10.642;2023-04-03T06:48:20;6.80;99.90
15926;DHT22;8062;53.882;10.642;2023-04-03T06:49:40;7.50;99.90
15926;DHT22;8062;53.882;10.642;2023-04-03T06:51:00;8.10;99.90
15926;DHT22;8062;53.882;10.642;2023-04-03T06:52:19;8.50;99.90
15926;DHT22;8062;53.882;10.642;2023-04-03T06:53:39;8.90;99.90
15926;DHT22;8062;53.882;10.642;2023-04-03T06:54:59;9.00;99.90
15926;DHT22;8062;53.882;10.642;2023-04-03T06:56:20;9.10;99.90
15926;DHT22;8062;53.882;10.642;2023-04-03T06:57:40;9.30;99.90
15926;DHT22;8062;53.882;10.642;2023-04-03T06:59:00;9.60;99.90
15926;DHT22;8062;53.882;10.642;2023-04-03T07:00:20;10.00;99.00
15926;DHT22;8062;53.882;10.642;2023-04-03T07:01:40;9.80;96.50
15926;DHT22;8062;53.882;10.642;2023-04-03T07:03:01;9.70;99.00
15926;DHT22;8062;53.882;10.642;2023-04-03T07:04:20;10.00;96.00
15926;DHT22;8062;53.882;10.642;2023-04-03T07:05:40;9.60;95.80
15926;DHT22;8062;53.882;10.642;2023-04-03T07:06:59;9.50;95.70
15926;DHT22;8062;53.882;10.642;2023-04-03T07:08:19;9.20;95.60
15926;DHT22;8062;53.882;10.642;2023-04-03T07:09:39;8.90;96.80
15926;DHT22;8062;53.882;10.642;2023-04-03T07:10:59;8.60;95.80
15926;DHT22;8062;53.882;10.642;2023-04-03T07:12:20;8.40;95.30
15926;DHT22;8062;53.882;10.642;2023-04-03T07:13:40;8.10;98.00
15926;DHT22;8062;53.882;10.642;2023-04-03T07:14:59;8.10;98.20
15926;DHT22;8062;53.882;10.642;2023-04-03T07:16:19;8.10;97.50
15926;DHT22;8062;53.882;10.642;2023-04-03T07:17:39;8.00;96.40
15926;DHT22;8062;53.882;10.642;2023-04-03T07:18:59;7.90;98.10
15926;DHT22;8062;53.882;10.642;2023-04-03T07:20:19;7.90;98.50
15926;DHT22;8062;53.882;10.642;2023-04-03T07:21:39;7.80;97.70
15926;DHT22;8062;53.882;10.642;2023-04-03T07:22:58;7.80;98.30
15926;DHT22;8062;53.882;10.642;2023-04-03T07:24:18;7.70;97.10
15926;DHT22;8062;53.882;10.642;2023-04-03T07:25:45;7.80;98.90
15926;DHT22;8062;53.882;10.642;2023-04-03T07:27:05;7.70;97.90
15926;DHT22;8062;53.882;10.642;2023-04-03T07:28:25;7.80;98.30
15926;DHT22;8062;53.882;10.642;2023-04-03T07:29:45;7.70;98.30
15926;DHT22;8062;53.882;10.642;2023-04-03T07:31:07;7.70;97.40
15926;DHT22;8062;53.882;10.642;2023-04-03T07:32:28;7.70;99.50
15926;DHT22;8062;53.882;10.642;2023-04-03T07:33:47;7.80;98.70
15926;DHT22;8062;53.882;10.642;2023-04-03T07:35:07;7.80;97.20
15926;DHT22;8062;53.882;10.642;2023-04-03T07:36:26;7.50;97.00
15926;DHT22;8062;53.882;10.642;2023-04-03T07:37:47;7.40;97.90
15926;DHT22;8062;53.882;10.642;2023-04-03T07:39:06;7.60;98.20
15926;DHT22;8062;53.882;10.642;2023-04-03T07:40:27;7.70;99.40
15926;DHT22;8062;53.882;10.642;2023-04-03T07:41:46;7.80;97.30
15926;DHT22;8062;53.882;10.642;2023-04-03T07:43:06;7.90;98.00
15926;DHT22;8062;53.882;10.642;2023-04-03T07:44:25;8.00;97.70
15926;DHT22;8062;53.882;10.642;2023-04-03T07:45:46;8.00;97.60
15926;DHT22;8062;53.882;10.642;2023-04-03T07:47:09;8.10;97.30
15926;DHT22;8062;53.882;10.642;2023-04-03T07:48:28;8.20;97.30
15926;DHT22;8062;53.882;10.642;2023-04-03T07:49:47;8.00;95.90
15926;DHT22;8062;53.882;10.642;2023-04-03T07:51:07;8.10;95.10
15926;DHT22;8062;53.882;10.642;2023-04-03T07:52:27;7.80;95.60
15926;DHT22;8062;53.882;10.642;2023-04-03T07:53:46;8.00;96.80
15926;DHT22;8062;53.882;10.642;2023-04-03T07:55:06;8.10;97.30
15926;DHT22;8062;53.882;10.642;2023-04-03T07:56:26;8.20;98.40
15926;DHT22;8062;53.882;10.642;2023-04-03T07:57:45;8.20;96.60
15926;DHT22;8062;53.882;10.642;2023-04-03T07:59:04;8.10;95.00
15926;DHT22;8062;53.882;10.642;2023-04-03T08:00:24;8.00;95.90
15926;DHT22;8062;53.882;10.642;2023-04-03T08:01:44;7.90;96.80
15926;DHT22;8062;53.882;10.642;2023-04-03T08:03:03;7.90;96.20
15926;DHT22;8062;53.882;10.642;2023-04-03T08:04:23;7.70;95.60
15926;DHT22;8062;53.882;10.642;2023-04-03T08:05:46;7.80;96.50
15926;DHT22;8062;53.882;10.642;2023-04-03T08:07:06;8.10;97.00
15926;DHT22;8062;53.882;10.642;2023-04-03T08:08:25;8.20;96.30
15926;DHT22;8062;53.882;10.642;2023-04-03T08:09:45;8.40;96.10
15926;DHT22;8062;53.882;10.642;2023-04-03T08:11:04;8.40;96.40
15926;DHT22;8062;53.882;10.642;2023-04-03T08:12:25;8.60;98.50
15926;DHT22;8062;53.882;10.642;2023-04-03T08:13:44;8.80;95.90
15926;DHT22;8062;53.882;10.642;2023-04-03T08:15:04;9.10;97.20
15926;DHT22;8062;53.882;10.642;2023-04-03T08:16:24;9.10;95.30
15926;DHT22;8062;53.882;10.642;2023-04-03T08:17:46;9.10;95.50
15926;DHT22;8062;53.882;10.642;2023-04-03T08:19:06;9.30;97.20
15926;DHT22;8062;53.882;10.642;2023-04-03T08:20:27;9.20;95.00
15926;DHT22;8062;53.882;10.642;2023-04-03T08:21:46;8.90;95.10
15926;DHT22;8062;53.882;10.642;2023-04-03T08:23:06;8.80;94.90
15926;DHT22;8062;53.882;10.642;2023-04-03T08:24:26;8.90;94.30
15926;DHT22;8062;53.882;10.642;2023-04-03T08:25:46;8.60;94.40
15926;DHT22;8062;53.882;10.642;2023-04-03T08:27:05;8.30;96.40
15926;DHT22;8062;53.882;10.642;2023-04-03T08:28:24;8.40;97.40
15926;DHT22;8062;53.882;10.642;2023-04-03T08:29:44;8.10;96.10
15926;DHT22;8062;53.882;10.642;2023-04-03T08:31:06;7.80;96.60
15926;DHT22;8062;53.882;10.642;2023-04-03T08:32:26;7.60;97.50
15926;DHT22;8062;53.882;10.642;2023-04-03T08:33:47;7.50;98.10
15926;DHT22;8062;53.882;10.642;2023-04-03T08:35:07;7.20;98.20